»·PEaware :: SWA250 KSFO-KRNO

SWA250 :: KSFO-KRNO

FLIGHT INFORMATION

Flight Status: Arrived
Operator:
Southwest Airlines
More flights by this operator :: More flights under this callsign
Pilot: Anonymous 17611 (17611)
Aircraft: BOEING 737-300
(B733)
More flights by this aircraft type
Origin: KSFO San Francisco Intl
United States
Destination: KRNO Reno/Tahoe Intl
United States
More flights between these airports :: More routes between these airports
Route: +TRUKN2 ORRCA HOBOA JUDPU
File this flight plan on PilotEdge
Remarks:
Altitude:
(Current/Filed)
29,000ft
Speed:
(Current/Filed)
480kts
Departed: 22-Dec-17 12:55 PM
Arrived: 22-Dec-17 01:28 PM
Distance/Time
Traveled:
166nm/0:33
Distance/Time
To Go:
Arrived

Flight Plot

Page will automatically refresh every two minutes.

Flight plan parsing failed; only flown route is shown


Map Options




Map Legend


Flown Route
Filed Route
Departure Airport
Arrival Airport
Navaid (VOR, NDB)
Fix

Horizontal Profiles

Position Reports

Time Latitude Longitude Heading Altitude Ground
Speed
22-Dec-17 12:33 37.612231 -122.384241 59 30ft 0kts
22-Dec-17 12:34 37.612231 -122.384241 59 30ft 0kts
22-Dec-17 12:35 37.612231 -122.384241 59 30ft 0kts
22-Dec-17 12:36 37.612231 -122.384241 59 30ft 0kts
22-Dec-17 12:37 37.612231 -122.384241 59 30ft 0kts
22-Dec-17 12:38 37.612231 -122.384241 59 30ft 0kts
22-Dec-17 12:39 37.612231 -122.384241 59 30ft 0kts
22-Dec-17 12:40 37.612231 -122.384241 59 30ft 0kts
22-Dec-17 12:41 37.612231 -122.384241 59 30ft 0kts
22-Dec-17 12:42 37.612231 -122.384241 59 30ft 0kts
22-Dec-17 12:43 37.612231 -122.384241 59 30ft 0kts
22-Dec-17 12:44 37.612231 -122.384241 59 30ft 0kts
22-Dec-17 12:45 37.612231 -122.384241 59 30ft 0kts
22-Dec-17 12:46 37.612231 -122.384241 59 30ft 0kts
22-Dec-17 12:47 37.612231 -122.384241 59 30ft 0kts
22-Dec-17 12:48 37.612231 -122.384241 59 30ft 0kts
22-Dec-17 12:49 37.612231 -122.384241 59 30ft 0kts
22-Dec-17 12:50 37.612231 -122.384241 59 30ft 0kts
22-Dec-17 12:51 37.612231 -122.384241 59 30ft 0kts
22-Dec-17 12:52 37.612229 -122.384245 60 30ft 0kts
22-Dec-17 12:53 37.611755 -122.384550 28 30ft 2kts
22-Dec-17 12:54 37.611572 -122.385068 102 30ft 1kts
22-Dec-17 12:55 37.611573 -122.385076 102 30ft 0kts
22-Dec-17 12:56 37.611573 -122.385076 102 30ft 0kts
22-Dec-17 12:57 37.611531 -122.384815 101 30ft 3kts
22-Dec-17 12:58 37.610189 -122.383968 214 30ft 13kts
22-Dec-17 12:59 37.609338 -122.383340 116 30ft 0kts
22-Dec-17 13:00 37.609587 -122.381831 20 29ft 13kts
22-Dec-17 13:01 37.632152 -122.366451 30 617ft 176kts
22-Dec-17 13:02 37.662830 -122.314062 55 2788ft 204kts
22-Dec-17 13:03 37.698336 -122.249274 52 4841ft 251kts
22-Dec-17 13:04 37.748621 -122.185880 31 7368ft 273kts
22-Dec-17 13:05 37.811412 -122.130720 33 10251ft 285kts
22-Dec-17 13:06 37.882735 -122.065359 32 12126ft 337kts
22-Dec-17 13:07 37.959624 -121.995409 31 15006ft 351kts
22-Dec-17 13:08 38.040083 -121.922194 31 17708ft 366kts
22-Dec-17 13:09 38.123487 -121.846103 30 19360ft 376kts
22-Dec-17 13:10 38.209005 -121.767990 30 20768ft 383kts
22-Dec-17 13:11 38.296369 -121.687803 29 22974ft 395kts
22-Dec-17 13:12 38.386414 -121.604876 29 24977ft 408kts
22-Dec-17 13:13 38.475643 -121.511980 38 26824ft 426kts
22-Dec-17 13:14 38.559807 -121.403903 37 28465ft 438kts
22-Dec-17 13:15 38.636699 -121.305348 38 29439ft 432kts
22-Dec-17 13:16 38.716389 -121.203023 37 29410ft 424kts
22-Dec-17 13:17 38.802630 -121.092056 38 29351ft 459kts
22-Dec-17 13:18 38.892279 -120.976125 37 29379ft 459kts
22-Dec-17 13:19 38.982118 -120.859563 36 29014ft 454kts
22-Dec-17 13:20 39.065814 -120.750176 36 26746ft 420kts
22-Dec-17 13:21 39.145555 -120.646453 37 24257ft 409kts
22-Dec-17 13:22 39.224103 -120.543453 38 21767ft 399kts
22-Dec-17 13:23 39.299845 -120.443700 38 19262ft 378kts
22-Dec-17 13:24 39.370828 -120.349958 40 16779ft 358kts
22-Dec-17 13:25 39.436560 -120.256118 44 16034ft 357kts
22-Dec-17 13:26 39.497959 -120.161938 44 16045ft 356kts
22-Dec-17 13:27 39.561509 -120.064396 45 14046ft 347kts
22-Dec-17 13:28 39.621363 -119.972309 45 11655ft 325kts
22-Dec-17 13:29 39.676521 -119.889152 46 9994ft 290kts
22-Dec-17 13:30 39.669294 -119.800593 149 8433ft 282kts
22-Dec-17 13:31 39.602674 -119.749798 162 7958ft 278kts
22-Dec-17 13:32 39.533814 -119.770567 176 5094ft 247kts
22-Dec-17 13:33 39.487491 -119.769280 179 4412ft 41kts
22-Dec-17 13:34 39.486484 -119.770599 271 4414ft 2kts
22-Dec-17 13:35 39.488367 -119.771548 359 4410ft 14kts
22-Dec-17 13:36 39.492786 -119.771539 359 4410ft 17kts
22-Dec-17 13:37 39.498004 -119.771523 359 4410ft 20kts
22-Dec-17 13:38 39.503487 -119.771513 349 4410ft 10kts
22-Dec-17 13:39 39.504467 -119.773751 359 4413ft 0kts
22-Dec-17 13:40 39.504467 -119.773751 359 4413ft 0kts
22-Dec-17 13:41 39.504467 -119.773751 359 4413ft 0kts
22-Dec-17 13:42 39.504467 -119.773751 359 4413ft 0kts
22-Dec-17 13:43 39.504467 -119.773751 359 4413ft 0kts
22-Dec-17 13:44 39.504467 -119.773751 359 4413ft 0kts
22-Dec-17 13:45 39.504467 -119.773751 359 4413ft 0kts
22-Dec-17 13:46 39.504467 -119.773751 359 4413ft 0kts
22-Dec-17 13:47 39.504467 -119.773751 359 4413ft 0kts
22-Dec-17 13:48 39.504467 -119.773751 359 4413ft 0kts

Navigation Log

Ident Type
Flight plan parsing failed, navigation log unavailable